sensor_id;sensor_type;location;lat;lon;timestamp;pressure;altitude;pressure_sealevel;temperature;humidity
71149;BME280;59072;42.144;25.200;2022-09-09T00:00:23;100272.63;;;19.85;53.69
71149;BME280;59072;42.144;25.200;2022-09-09T00:07:59;100284.19;;;20.11;54.63
71149;BME280;59072;42.144;25.200;2022-09-09T00:10:39;100274.19;;;20.01;53.33
71149;BME280;59072;42.144;25.200;2022-09-09T00:13:15;100288.78;;;20.05;52.97
71149;BME280;59072;42.144;25.200;2022-09-09T00:16:25;100287.06;;;20.30;53.44
71149;BME280;59072;42.144;25.200;2022-09-09T00:18:55;100278.50;;;20.07;53.12
71149;BME280;59072;42.144;25.200;2022-09-09T00:21:36;100272.09;;;19.88;54.43
71149;BME280;59072;42.144;25.200;2022-09-09T00:24:27;100266.63;;;19.93;53.48
71149;BME280;59072;42.144;25.200;2022-09-09T00:27:16;100278.66;;;20.32;53.36
71149;BME280;59072;42.144;25.200;2022-09-09T00:29:46;100280.66;;;20.11;53.66
71149;BME280;59072;42.144;25.200;2022-09-09T00:32:18;100274.22;;;19.91;54.36
71149;BME280;59072;42.144;25.200;2022-09-09T00:35:32;100282.94;;;19.73;54.65
71149;BME280;59072;42.144;25.200;2022-09-09T00:37:38;100278.63;;;19.46;55.21
71149;BME280;59072;42.144;25.200;2022-09-09T00:40:23;100284.81;;;19.77;55.42
71149;BME280;59072;42.144;25.200;2022-09-09T00:43:17;100280.16;;;19.98;54.96
71149;BME280;59072;42.144;25.200;2022-09-09T00:48:17;100281.59;;;19.55;56.33
71149;BME280;59072;42.144;25.200;2022-09-09T00:50:57;100287.28;;;19.48;56.00
71149;BME280;59072;42.144;25.200;2022-09-09T00:56:18;100267.78;;;19.51;56.09
71149;BME280;59072;42.144;25.200;2022-09-09T00:59:11;100280.78;;;19.54;56.17
71149;BME280;59072;42.144;25.200;2022-09-09T01:01:40;100280.53;;;19.20;57.51
71149;BME280;59072;42.144;25.200;2022-09-09T01:04:12;100282.72;;;19.18;57.73
71149;BME280;59072;42.144;25.200;2022-09-09T01:06:41;100281.63;;;19.03;58.45
71149;BME280;59072;42.144;25.200;2022-09-09T01:12:37;100277.84;;;19.35;58.16
71149;BME280;59072;42.144;25.200;2022-09-09T01:15:24;100282.41;;;19.76;57.22
71149;BME280;59072;42.144;25.200;2022-09-09T01:20:30;100271.34;;;20.37;55.23
71149;BME280;59072;42.144;25.200;2022-09-09T01:28:13;100281.03;;;20.88;53.66
71149;BME280;59072;42.144;25.200;2022-09-09T01:30:41;100275.88;;;20.92;53.61
71149;BME280;59072;42.144;25.200;2022-09-09T01:33:12;100277.50;;;20.93;53.79
71149;BME280;59072;42.144;25.200;2022-09-09T01:36:06;100286.56;;;21.12;53.52
71149;BME280;59072;42.144;25.200;2022-09-09T01:38:34;100281.81;;;20.99;53.85
71149;BME280;59072;42.144;25.200;2022-09-09T01:41:01;100283.09;;;21.06;53.45
71149;BME280;59072;42.144;25.200;2022-09-09T01:43:27;100281.28;;;20.97;53.38
71149;BME280;59072;42.144;25.200;2022-09-09T01:45:54;100274.47;;;20.60;55.02
71149;BME280;59072;42.144;25.200;2022-09-09T01:48:24;100293.66;;;20.09;56.97
71149;BME280;59072;42.144;25.200;2022-09-09T01:50:50;100296.59;;;20.17;56.67
71149;BME280;59072;42.144;25.200;2022-09-09T01:53:18;100286.19;;;19.80;56.73
71149;BME280;59072;42.144;25.200;2022-09-09T02:03:48;100297.28;;;19.78;57.71
71149;BME280;59072;42.144;25.200;2022-09-09T02:06:35;100286.22;;;19.44;58.65
71149;BME280;59072;42.144;25.200;2022-09-09T02:09:05;100283.47;;;19.49;58.64
71149;BME280;59072;42.144;25.200;2022-09-09T02:11:32;100288.25;;;20.09;56.51
71149;BME280;59072;42.144;25.200;2022-09-09T02:14:22;100295.28;;;20.10;57.20
71149;BME280;59072;42.144;25.200;2022-09-09T02:16:56;100289.19;;;20.38;56.91
71149;BME280;59072;42.144;25.200;2022-09-09T02:19:32;100281.00;;;20.54;55.25
71149;BME280;59072;42.144;25.200;2022-09-09T02:21:59;100278.13;;;20.79;54.91
71149;BME280;59072;42.144;25.200;2022-09-09T02:24:27;100269.00;;;20.70;53.91
71149;BME280;59072;42.144;25.200;2022-09-09T02:26:56;100267.25;;;19.64;57.40
71149;BME280;59072;42.144;25.200;2022-09-09T02:29:36;100277.03;;;18.99;59.43
71149;BME280;59072;42.144;25.200;2022-09-09T02:32:06;100281.03;;;18.65;60.31
71149;BME280;59072;42.144;25.200;2022-09-09T02:34:36;100284.50;;;18.61;60.74
71149;BME280;59072;42.144;25.200;2022-09-09T02:37:03;100261.19;;;18.24;61.22
71149;BME280;59072;42.144;25.200;2022-09-09T02:39:29;100276.88;;;18.32;61.38
71149;BME280;59072;42.144;25.200;2022-09-09T02:41:54;100271.22;;;17.81;63.23
71149;BME280;59072;42.144;25.200;2022-09-09T02:44:20;100279.31;;;17.76;63.35
71149;BME280;59072;42.144;25.200;2022-09-09T02:52:08;100253.31;;;17.59;63.78
71149;BME280;59072;42.144;25.200;2022-09-09T02:54:38;100264.41;;;17.68;63.63
71149;BME280;59072;42.144;25.200;2022-09-09T02:57:28;100288.47;;;17.75;64.75
71149;BME280;59072;42.144;25.200;2022-09-09T02:59:57;100286.44;;;17.97;63.48
71149;BME280;59072;42.144;25.200;2022-09-09T03:02:22;100285.75;;;17.70;64.39
71149;BME280;59072;42.144;25.200;2022-09-09T03:04:49;100282.91;;;17.49;64.69
71149;BME280;59072;42.144;25.200;2022-09-09T03:07:18;100270.47;;;17.43;65.27
71149;BME280;59072;42.144;25.200;2022-09-09T03:09:44;100279.19;;;17.55;64.81
71149;BME280;59072;42.144;25.200;2022-09-09T03:12:10;100286.78;;;17.26;65.66
71149;BME280;59072;42.144;25.200;2022-09-09T03:14:37;100297.84;;;17.30;65.39
71149;BME280;59072;42.144;25.200;2022-09-09T03:17:04;100298.97;;;17.34;65.35
71149;BME280;59072;42.144;25.200;2022-09-09T03:19:30;100282.56;;;17.40;65.32
71149;BME280;59072;42.144;25.200;2022-09-09T03:21:56;100278.97;;;17.24;66.61
71149;BME280;59072;42.144;25.200;2022-09-09T03:24:21;100276.84;;;16.99;66.94
71149;BME280;59072;42.144;25.200;2022-09-09T03:26:48;100287.59;;;17.26;65.70
71149;BME280;59072;42.144;25.200;2022-09-09T03:29:13;100298.88;;;17.23;66.53
71149;BME280;59072;42.144;25.200;2022-09-09T03:31:40;100313.72;;;17.26;66.07
71149;BME280;59072;42.144;25.200;2022-09-09T03:34:05;100286.03;;;16.98;67.25
71149;BME280;59072;42.144;25.200;2022-09-09T03:36:31;100284.78;;;17.11;66.60
71149;BME280;59072;42.144;25.200;2022-09-09T03:38:57;100298.31;;;17.16;67.48
71149;BME280;59072;42.144;25.200;2022-09-09T03:41:23;100283.34;;;17.03;67.62
71149;BME280;59072;42.144;25.200;2022-09-09T03:43:53;100297.06;;;17.02;68.31
71149;BME280;59072;42.144;25.200;2022-09-09T03:46:23;100286.09;;;17.41;66.25
71149;BME280;59072;42.144;25.200;2022-09-09T03:48:48;100293.28;;;17.67;65.47
71149;BME280;59072;42.144;25.200;2022-09-09T03:51:14;100295.50;;;17.76;65.28
71149;BME280;59072;42.144;25.200;2022-09-09T03:53:41;100299.09;;;17.49;65.91
71149;BME280;59072;42.144;25.200;2022-09-09T03:56:07;100303.22;;;17.62;65.37
71149;BME280;59072;42.144;25.200;2022-09-09T03:58:33;100307.81;;;17.66;65.45
71149;BME280;59072;42.144;25.200;2022-09-09T04:03:26;100311.81;;;17.59;66.42
71149;BME280;59072;42.144;25.200;2022-09-09T04:05:53;100310.38;;;17.46;67.25
71149;BME280;59072;42.144;25.200;2022-09-09T04:08:20;100309.81;;;17.06;67.90
71149;BME280;59072;42.144;25.200;2022-09-09T04:10:47;100304.91;;;17.36;65.80
71149;BME280;59072;42.144;25.200;2022-09-09T04:13:13;100313.38;;;17.50;65.74
71149;BME280;59072;42.144;25.200;2022-09-09T04:15:40;100316.31;;;17.43;66.59
71149;BME280;59072;42.144;25.200;2022-09-09T04:18:05;100310.84;;;17.38;66.91
71149;BME280;59072;42.144;25.200;2022-09-09T04:20:31;100313.31;;;17.39;66.53
71149;BME280;59072;42.144;25.200;2022-09-09T04:22:57;100301.34;;;16.71;69.92
71149;BME280;59072;42.144;25.200;2022-09-09T04:25:23;100320.22;;;16.48;71.67
71149;BME280;59072;42.144;25.200;2022-09-09T04:27:56;100302.44;;;16.47;71.25
71149;BME280;59072;42.144;25.200;2022-09-09T04:30:23;100308.16;;;16.29;71.94
71149;BME280;59072;42.144;25.200;2022-09-09T04:32:48;100313.31;;;16.14;73.18
71149;BME280;59072;42.144;25.200;2022-09-09T04:35:14;100313.25;;;15.86;74.35
71149;BME280;59072;42.144;25.200;2022-09-09T04:37:39;100318.63;;;15.86;73.76
71149;BME280;59072;42.144;25.200;2022-09-09T04:40:07;100313.38;;;15.97;73.54
71149;BME280;59072;42.144;25.200;2022-09-09T04:42:38;100315.19;;;15.91;73.40
71149;BME280;59072;42.144;25.200;2022-09-09T04:45:05;100316.47;;;16.27;72.69
71149;BME280;59072;42.144;25.200;2022-09-09T04:47:32;100291.19;;;16.06;72.84
71149;BME280;59072;42.144;25.200;2022-09-09T04:49:58;100293.44;;;16.15;72.75
71149;BME280;59072;42.144;25.200;2022-09-09T04:52:23;100287.06;;;16.21;71.69
71149;BME280;59072;42.144;25.200;2022-09-09T04:54:49;100312.78;;;16.34;71.42
71149;BME280;59072;42.144;25.200;2022-09-09T04:57:14;100294.50;;;16.36;71.47
71149;BME280;59072;42.144;25.200;2022-09-09T04:59:39;100298.81;;;16.37;72.18
71149;BME280;59072;42.144;25.200;2022-09-09T05:02:05;100298.66;;;16.48;71.78
71149;BME280;59072;42.144;25.200;2022-09-09T05:04:31;100297.06;;;16.47;71.49
71149;BME280;59072;42.144;25.200;2022-09-09T05:06:56;100296.75;;;16.71;70.16
71149;BME280;59072;42.144;25.200;2022-09-09T05:09:22;100318.91;;;16.78;71.15
71149;BME280;59072;42.144;25.200;2022-09-09T05:11:47;100309.59;;;17.13;69.50
71149;BME280;59072;42.144;25.200;2022-09-09T05:14:14;100329.00;;;17.15;69.83
71149;BME280;59072;42.144;25.200;2022-09-09T05:16:39;100341.28;;;17.33;68.80
71149;BME280;59072;42.144;25.200;2022-09-09T05:19:05;100327.13;;;17.85;67.16
71149;BME280;59072;42.144;25.200;2022-09-09T05:21:33;100321.63;;;17.75;67.21
71149;BME280;59072;42.144;25.200;2022-09-09T05:23:59;100334.78;;;17.61;67.62
71149;BME280;59072;42.144;25.200;2022-09-09T05:26:26;100327.41;;;17.89;67.50
71149;BME280;59072;42.144;25.200;2022-09-09T05:28:51;100321.91;;;18.21;65.81
71149;BME280;59072;42.144;25.200;2022-09-09T05:31:18;100323.84;;;18.31;65.56
71149;BME280;59072;42.144;25.200;2022-09-09T05:33:45;100333.72;;;18.10;65.99
71149;BME280;59072;42.144;25.200;2022-09-09T05:36:16;100308.72;;;18.25;65.82
71149;BME280;59072;42.144;25.200;2022-09-09T05:38:42;100326.59;;;18.41;65.50
71149;BME280;59072;42.144;25.200;2022-09-09T05:41:09;100313.16;;;18.67;64.47
71149;BME280;59072;42.144;25.200;2022-09-09T05:43:36;100331.06;;;19.04;63.84
71149;BME280;59072;42.144;25.200;2022-09-09T05:48:34;100317.56;;;19.24;63.36
71149;BME280;59072;42.144;25.200;2022-09-09T05:51:00;100314.88;;;19.14;62.92
71149;BME280;59072;42.144;25.200;2022-09-09T05:53:28;100339.75;;;19.37;63.18
71149;BME280;59072;42.144;25.200;2022-09-09T05:56:05;100335.41;;;19.20;63.25
71149;BME280;59072;42.144;25.200;2022-09-09T05:58:34;100337.06;;;19.52;65.08
71149;BME280;59072;42.144;25.200;2022-09-09T06:01:07;100333.81;;;19.71;63.50
71149;BME280;59072;42.144;25.200;2022-09-09T06:03:35;100313.19;;;19.95;62.31
71149;BME280;59072;42.144;25.200;2022-09-09T06:06:03;100319.66;;;20.04;61.41
71149;BME280;59072;42.144;25.200;2022-09-09T06:08:32;100325.53;;;20.27;62.10
71149;BME280;59072;42.144;25.200;2022-09-09T06:11:02;100323.59;;;20.33;60.96
71149;BME280;59072;42.144;25.200;2022-09-09T06:13:28;100330.56;;;20.54;61.20
71149;BME280;59072;42.144;25.200;2022-09-09T06:15:53;100340.47;;;20.79;60.30
71149;BME280;59072;42.144;25.200;2022-09-09T06:18:19;100340.47;;;20.79;60.56
71149;BME280;59072;42.144;25.200;2022-09-09T06:20:56;100334.44;;;20.93;60.05
71149;BME280;59072;42.144;25.200;2022-09-09T06:23:22;100334.31;;;21.08;59.76
71149;BME280;59072;42.144;25.200;2022-09-09T06:25:48;100318.19;;;20.87;58.79
71149;BME280;59072;42.144;25.200;2022-09-09T06:28:15;100317.31;;;20.97;58.90
71149;BME280;59072;42.144;25.200;2022-09-09T06:30:41;100305.22;;;20.79;59.19
71149;BME280;59072;42.144;25.200;2022-09-09T06:33:06;100316.66;;;20.76;57.98
71149;BME280;59072;42.144;25.200;2022-09-09T06:35:32;100323.09;;;20.85;58.01
71149;BME280;59072;42.144;25.200;2022-09-09T06:37:57;100306.19;;;20.99;58.59
71149;BME280;59072;42.144;25.200;2022-09-09T06:40:24;100300.34;;;21.21;57.76
71149;BME280;59072;42.144;25.200;2022-09-09T06:42:50;100304.53;;;21.37;57.70
71149;BME280;59072;42.144;25.200;2022-09-09T06:45:16;100305.47;;;21.57;57.12
71149;BME280;59072;42.144;25.200;2022-09-09T06:47:43;100294.44;;;21.48;57.37
71149;BME280;59072;42.144;25.200;2022-09-09T06:50:08;100314.41;;;21.57;57.40
71149;BME280;59072;42.144;25.200;2022-09-09T06:52:35;100316.88;;;21.83;56.43
71149;BME280;59072;42.144;25.200;2022-09-09T06:55:01;100319.00;;;22.10;56.84
71149;BME280;59072;42.144;25.200;2022-09-09T06:57:26;100318.03;;;22.25;56.93
71149;BME280;59072;42.144;25.200;2022-09-09T06:59:51;100309.84;;;22.30;54.61
71149;BME280;59072;42.144;25.200;2022-09-09T07:02:17;100312.00;;;22.04;54.29
71149;BME280;59072;42.144;25.200;2022-09-09T07:04:42;100305.59;;;22.19;54.20
71149;BME280;59072;42.144;25.200;2022-09-09T07:09:34;100317.56;;;22.42;54.29
71149;BME280;59072;42.144;25.200;2022-09-09T07:12:00;100321.41;;;22.60;54.97
71149;BME280;59072;42.144;25.200;2022-09-09T07:14:26;100337.25;;;22.53;53.91
71149;BME280;59072;42.144;25.200;2022-09-09T07:16:52;100338.28;;;22.76;52.98
71149;BME280;59072;42.144;25.200;2022-09-09T07:19:17;100323.28;;;22.59;54.13
71149;BME280;59072;42.144;25.200;2022-09-09T07:21:43;100331.47;;;22.78;53.98
71149;BME280;59072;42.144;25.200;2022-09-09T07:24:09;100345.13;;;22.92;52.69
71149;BME280;59072;42.144;25.200;2022-09-09T07:26:37;100350.00;;;23.14;51.92
71149;BME280;59072;42.144;25.200;2022-09-09T07:29:03;100342.84;;;23.18;51.86
71149;BME280;59072;42.144;25.200;2022-09-09T07:31:34;100352.03;;;23.22;53.68
71149;BME280;59072;42.144;25.200;2022-09-09T07:34:02;100347.25;;;23.33;51.72
71149;BME280;59072;42.144;25.200;2022-09-09T07:36:31;100351.56;;;23.67;49.44
71149;BME280;59072;42.144;25.200;2022-09-09T07:39:02;100347.94;;;23.72;50.39
71149;BME280;59072;42.144;25.200;2022-09-09T07:41:31;100344.06;;;23.78;50.92
71149;BME280;59072;42.144;25.200;2022-09-09T07:43:59;100314.75;;;23.70;51.48
71149;BME280;59072;42.144;25.200;2022-09-09T07:46:26;100334.28;;;24.04;50.63
71149;BME280;59072;42.144;25.200;2022-09-09T07:48:53;100339.13;;;24.35;49.94
71149;BME280;59072;42.144;25.200;2022-09-09T07:51:22;100348.19;;;24.44;49.67
71149;BME280;59072;42.144;25.200;2022-09-09T07:53:52;100337.31;;;24.44;49.74
71149;BME280;59072;42.144;25.200;2022-09-09T07:56:19;100312.47;;;24.32;49.54
71149;BME280;59072;42.144;25.200;2022-09-09T07:58:48;100293.91;;;24.20;50.23
71149;BME280;59072;42.144;25.200;2022-09-09T08:01:20;100317.56;;;24.11;50.05
71149;BME280;59072;42.144;25.200;2022-09-09T08:03:51;100300.66;;;24.51;49.56
71149;BME280;59072;42.144;25.200;2022-09-09T08:06:17;100302.53;;;24.64;48.91
71149;BME280;59072;42.144;25.200;2022-09-09T08:08:43;100300.81;;;24.68;48.69
71149;BME280;59072;42.144;25.200;2022-09-09T08:11:14;100291.47;;;24.60;48.17
71149;BME280;59072;42.144;25.200;2022-09-09T08:13:41;100299.44;;;24.93;47.86
71149;BME280;59072;42.144;25.200;2022-09-09T08:16:19;100302.91;;;25.08;46.93
71149;BME280;59072;42.144;25.200;2022-09-09T08:18:50;100295.66;;;25.25;46.16
71149;BME280;59072;42.144;25.200;2022-09-09T08:21:42;100289.19;;;25.44;45.50
71149;BME280;59072;42.144;25.200;2022-09-09T08:24:10;100281.97;;;25.48;46.23
71149;BME280;59072;42.144;25.200;2022-09-09T08:26:40;100290.44;;;25.78;45.56
71149;BME280;59072;42.144;25.200;2022-09-09T08:29:08;100276.88;;;25.55;45.65
71149;BME280;59072;42.144;25.200;2022-09-09T08:31:40;100283.53;;;25.80;45.48
71149;BME280;59072;42.144;25.200;2022-09-09T08:34:07;100284.63;;;26.02;46.20
71149;BME280;59072;42.144;25.200;2022-09-09T08:36:38;100284.44;;;25.90;45.96
71149;BME280;59072;42.144;25.200;2022-09-09T08:39:06;100265.81;;;26.00;44.57
71149;BME280;59072;42.144;25.200;2022-09-09T08:50:22;100250.59;;;26.52;45.44
71149;BME280;59072;42.144;25.200;2022-09-09T08:53:08;100274.28;;;26.65;45.43
71149;BME280;59072;42.144;25.200;2022-09-09T08:55:50;100267.66;;;26.40;43.86
71149;BME280;59072;42.144;25.200;2022-09-09T08:58:21;100261.09;;;26.67;44.80
71149;BME280;59072;42.144;25.200;2022-09-09T09:04:03;100265.03;;;27.13;44.96
71149;BME280;59072;42.144;25.200;2022-09-09T09:06:48;100267.00;;;27.04;42.75
71149;BME280;59072;42.144;25.200;2022-09-09T09:09:25;100256.09;;;26.78;43.35
71149;BME280;59072;42.144;25.200;2022-09-09T09:11:57;100248.03;;;26.81;42.77
71149;BME280;59072;42.144;25.200;2022-09-09T09:14:29;100251.56;;;26.99;42.38
71149;BME280;59072;42.144;25.200;2022-09-09T09:19:42;100237.88;;;26.91;42.24
71149;BME280;59072;42.144;25.200;2022-09-09T09:22:22;100239.44;;;27.27;41.99
71149;BME280;59072;42.144;25.200;2022-09-09T09:25:20;100245.47;;;27.58;41.36
71149;BME280;59072;42.144;25.200;2022-09-09T09:28:11;100240.16;;;27.92;41.33
71149;BME280;59072;42.144;25.200;2022-09-09T09:30:45;100247.31;;;27.75;42.93
71149;BME280;59072;42.144;25.200;2022-09-09T09:33:34;100225.66;;;27.82;40.38
71149;BME280;59072;42.144;25.200;2022-09-09T09:36:01;100242.81;;;27.71;40.92
71149;BME280;59072;42.144;25.200;2022-09-09T09:38:28;100215.53;;;27.74;41.64
71149;BME280;59072;42.144;25.200;2022-09-09T09:40:56;100232.34;;;28.02;41.80
71149;BME280;59072;42.144;25.200;2022-09-09T09:43:34;100234.91;;;28.08;39.83
71149;BME280;59072;42.144;25.200;2022-09-09T09:46:00;100223.47;;;28.48;40.21
71149;BME280;59072;42.144;25.200;2022-09-09T09:48:28;100214.63;;;28.42;40.12
71149;BME280;59072;42.144;25.200;2022-09-09T09:50:59;100208.03;;;28.22;39.85
71149;BME280;59072;42.144;25.200;2022-09-09T09:53:28;100198.66;;;28.23;40.80
71149;BME280;59072;42.144;25.200;2022-09-09T09:56:05;100201.94;;;28.92;39.32
71149;BME280;59072;42.144;25.200;2022-09-09T10:04:14;100211.66;;;29.84;37.57
71149;BME280;59072;42.144;25.200;2022-09-09T10:06:41;100201.31;;;29.93;36.95
71149;BME280;59072;42.144;25.200;2022-09-09T10:09:24;100205.56;;;29.91;36.50
71149;BME280;59072;42.144;25.200;2022-09-09T10:15:02;100175.47;;;29.45;37.04
71149;BME280;59072;42.144;25.200;2022-09-09T10:17:56;100180.03;;;29.90;37.15
71149;BME280;59072;42.144;25.200;2022-09-09T10:23:25;100167.50;;;30.46;36.18
71149;BME280;59072;42.144;25.200;2022-09-09T10:26:13;100165.34;;;30.67;36.46
71149;BME280;59072;42.144;25.200;2022-09-09T10:31:56;100166.50;;;30.66;35.28
71149;BME280;59072;42.144;25.200;2022-09-09T10:56:20;100137.50;;;31.48;35.99
71149;BME280;59072;42.144;25.200;2022-09-09T10:59:13;100136.25;;;31.81;33.97
71149;BME280;59072;42.144;25.200;2022-09-09T11:01:44;100131.22;;;32.02;33.37
71149;BME280;59072;42.144;25.200;2022-09-09T11:04:32;100118.31;;;32.07;33.67
71149;BME280;59072;42.144;25.200;2022-09-09T11:07:02;100121.81;;;32.46;32.87
71149;BME280;59072;42.144;25.200;2022-09-09T11:09:36;100111.09;;;32.21;32.09
71149;BME280;59072;42.144;25.200;2022-09-09T11:12:04;100110.69;;;32.42;35.15
71149;BME280;59072;42.144;25.200;2022-09-09T11:14:47;100114.72;;;32.88;32.44
71149;BME280;59072;42.144;25.200;2022-09-09T11:17:24;100095.50;;;32.29;31.90
71149;BME280;59072;42.144;25.200;2022-09-09T11:19:52;100110.72;;;32.62;32.82
71149;BME280;59072;42.144;25.200;2022-09-09T11:22:22;100113.03;;;32.60;31.71
71149;BME280;59072;42.144;25.200;2022-09-09T11:25:04;100106.66;;;33.02;32.23
71149;BME280;59072;42.144;25.200;2022-09-09T11:38:46;100087.34;;;33.06;31.19
71149;BME280;59072;42.144;25.200;2022-09-09T11:41:13;100066.78;;;33.03;31.49
71149;BME280;59072;42.144;25.200;2022-09-09T11:43:40;100068.28;;;33.50;31.01
71149;BME280;59072;42.144;25.200;2022-09-09T11:46:07;100061.59;;;33.51;31.06
71149;BME280;59072;42.144;25.200;2022-09-09T11:48:42;100063.09;;;33.45;30.49
71149;BME280;59072;42.144;25.200;2022-09-09T11:51:13;100043.97;;;33.63;31.20
71149;BME280;59072;42.144;25.200;2022-09-09T11:54:02;100052.13;;;33.82;30.27
71149;BME280;59072;42.144;25.200;2022-09-09T11:59:04;100051.41;;;33.89;30.47
71149;BME280;59072;42.144;25.200;2022-09-09T12:01:38;100040.44;;;33.96;29.54
71149;BME280;59072;42.144;25.200;2022-09-09T12:06:44;100038.78;;;33.88;31.39
71149;BME280;59072;42.144;25.200;2022-09-09T12:09:47;100020.66;;;33.94;30.88
71149;BME280;59072;42.144;25.200;2022-09-09T12:19:39;100022.09;;;34.63;28.40
71149;BME280;59072;42.144;25.200;2022-09-09T12:27:47;100002.03;;;34.25;28.46
71149;BME280;59072;42.144;25.200;2022-09-09T12:30:21;99997.00;;;34.00;30.75
71149;BME280;59072;42.144;25.200;2022-09-09T12:33:01;99983.13;;;34.38;28.92
71149;BME280;59072;42.144;25.200;2022-09-09T12:35:28;99985.09;;;33.96;28.57
71149;BME280;59072;42.144;25.200;2022-09-09T12:37:59;99983.88;;;34.31;29.09
71149;BME280;59072;42.144;25.200;2022-09-09T12:40:27;99978.56;;;34.60;28.19
71149;BME280;59072;42.144;25.200;2022-09-09T12:42:53;99983.31;;;34.59;29.78
71149;BME280;59072;42.144;25.200;2022-09-09T12:45:21;99979.88;;;34.73;28.26
71149;BME280;59072;42.144;25.200;2022-09-09T12:47:59;99970.06;;;34.87;27.09
71149;BME280;59072;42.144;25.200;2022-09-09T12:50:30;99958.16;;;34.27;28.00
71149;BME280;59072;42.144;25.200;2022-09-09T12:53:20;99962.13;;;34.81;27.73
71149;BME280;59072;42.144;25.200;2022-09-09T12:55:53;99957.38;;;34.78;27.54
71149;BME280;59072;42.144;25.200;2022-09-09T12:58:20;99957.94;;;35.09;27.69
71149;BME280;59072;42.144;25.200;2022-09-09T13:00:53;99937.38;;;34.55;26.90
71149;BME280;59072;42.144;25.200;2022-09-09T13:03:22;99941.16;;;34.32;27.37
71149;BME280;59072;42.144;25.200;2022-09-09T13:05:48;99937.38;;;34.55;25.72
71149;BME280;59072;42.144;25.200;2022-09-09T13:08:17;99934.53;;;35.03;27.02
71149;BME280;59072;42.144;25.200;2022-09-09T13:11:03;99945.78;;;35.32;26.51
71149;BME280;59072;42.144;25.200;2022-09-09T13:16:00;99939.28;;;34.99;25.37
71149;BME280;59072;42.144;25.200;2022-09-09T13:18:32;99929.59;;;35.48;26.19
71149;BME280;59072;42.144;25.200;2022-09-09T13:20:59;99929.97;;;35.43;25.61
71149;BME280;59072;42.144;25.200;2022-09-09T13:23:30;99926.50;;;34.84;26.72
71149;BME280;59072;42.144;25.200;2022-09-09T13:25:59;99924.94;;;34.83;25.75
71149;BME280;59072;42.144;25.200;2022-09-09T13:28:27;99929.38;;;34.39;26.54
71149;BME280;59072;42.144;25.200;2022-09-09T13:35:57;99915.75;;;35.63;26.41
71149;BME280;59072;42.144;25.200;2022-09-09T13:38:24;99903.94;;;36.05;24.53
71149;BME280;59072;42.144;25.200;2022-09-09T13:43:27;99898.38;;;36.63;24.80
71149;BME280;59072;42.144;25.200;2022-09-09T13:45:59;99905.13;;;36.72;25.29
71149;BME280;59072;42.144;25.200;2022-09-09T13:48:25;99901.56;;;36.32;25.19
71149;BME280;59072;42.144;25.200;2022-09-09T13:50:56;99915.88;;;36.27;23.65
71149;BME280;59072;42.144;25.200;2022-09-09T13:53:22;99914.59;;;35.64;25.92
71149;BME280;59072;42.144;25.200;2022-09-09T13:55:47;99897.59;;;35.76;25.57
71149;BME280;59072;42.144;25.200;2022-09-09T13:58:16;99909.50;;;36.09;25.78
71149;BME280;59072;42.144;25.200;2022-09-09T14:00:46;99907.09;;;36.57;23.94
71149;BME280;59072;42.144;25.200;2022-09-09T14:03:12;99901.47;;;36.97;24.68
71149;BME280;59072;42.144;25.200;2022-09-09T14:05:39;99900.53;;;37.29;23.92
71149;BME280;59072;42.144;25.200;2022-09-09T14:08:05;99895.84;;;37.15;26.85
71149;BME280;59072;42.144;25.200;2022-09-09T14:10:31;99899.31;;;37.96;23.14
71149;BME280;59072;42.144;25.200;2022-09-09T14:12:57;99895.22;;;38.15;23.38
71149;BME280;59072;42.144;25.200;2022-09-09T14:15:22;99889.94;;;37.76;22.92
71149;BME280;59072;42.144;25.200;2022-09-09T14:17:48;99886.53;;;38.10;22.77
71149;BME280;59072;42.144;25.200;2022-09-09T14:20:14;99888.00;;;38.25;23.24
71149;BME280;59072;42.144;25.200;2022-09-09T14:22:40;99885.19;;;39.32;21.57
71149;BME280;59072;42.144;25.200;2022-09-09T14:25:06;99883.50;;;39.42;21.02
71149;BME280;59072;42.144;25.200;2022-09-09T14:27:32;99884.47;;;39.28;23.87
71149;BME280;59072;42.144;25.200;2022-09-09T14:29:58;99884.53;;;39.21;24.32
71149;BME280;59072;42.144;25.200;2022-09-09T14:32:23;99886.91;;;37.52;26.27
71149;BME280;59072;42.144;25.200;2022-09-09T14:34:49;99883.28;;;36.71;28.18
71149;BME280;59072;42.144;25.200;2022-09-09T14:37:18;99877.41;;;36.15;29.30
71149;BME280;59072;42.144;25.200;2022-09-09T14:39:43;99881.34;;;35.78;29.62
71149;BME280;59072;42.144;25.200;2022-09-09T14:42:14;99877.44;;;33.77;31.78
71149;BME280;59072;42.144;25.200;2022-09-09T14:44:40;99874.13;;;33.27;33.84
71149;BME280;59072;42.144;25.200;2022-09-09T14:47:06;99862.72;;;32.18;34.37
71149;BME280;59072;42.144;25.200;2022-09-09T14:49:33;99878.22;;;31.57;36.20
71149;BME280;59072;42.144;25.200;2022-09-09T14:51:58;99865.09;;;31.11;36.99
71149;BME280;59072;42.144;25.200;2022-09-09T14:54:24;99875.84;;;31.16;37.75
71149;BME280;59072;42.144;25.200;2022-09-09T14:56:49;99861.06;;;31.24;37.30
71149;BME280;59072;42.144;25.200;2022-09-09T14:59:15;99875.69;;;31.48;36.83
71149;BME280;59072;42.144;25.200;2022-09-09T15:01:40;99873.22;;;31.86;36.50
71149;BME280;59072;42.144;25.200;2022-09-09T15:04:06;99880.72;;;32.58;35.45
71149;BME280;59072;42.144;25.200;2022-09-09T15:06:34;99880.09;;;33.32;34.15
71149;BME280;59072;42.144;25.200;2022-09-09T15:09:02;99863.28;;;32.80;35.22
71149;BME280;59072;42.144;25.200;2022-09-09T15:11:30;99889.25;;;32.26;35.67